John M Carras — SVBK5 — position and weather

sailwx.info

Track history (hours):
 
Tides and Currents Weather Stations Pressure Air Temp Water Temp Dewpoint Dewpoint Depression Visibility Wind Speed Wind Dir Waves Ship Positions

John M Carras

Last reported at 2014-Sep-04 17:25 UTC. Time now 2014-Sep-19 23:59 UTC.
Position S 33°21' E 015°48'.
Warning: this ship's position is 15 days out of date.

Length 229 m; draft 14.2 m.

Type: Cargo ship. MMSI: 241150000.

Date/timePositionNaut miles runAvg speedWind from/ knotsBaromVisibWave heightAir tempDewpointWater temp
2014-Sep-04 17:25S 33°21' E 015°48'9611.7
2014-Sep-04 09:12S 34°12' E 017°25'2012.3
2014-Sep-04 07:32S 34°23' E 017°46'1212.0
2014-Sep-04 06:32S 34°30' E 017°59'1412.2
2014-Sep-04 05:22S 34°37' E 018°13'1012.1
2014-Sep-04 04:33S 34°41' E 018°24'1212.1
2014-Sep-04 03:34S 34°45' E 018°38'1212.0
2014-Sep-04 02:33S 34°49' E 018°52'1211.8
2014-Sep-04 01:31S 34°52' E 019°06'1311.8
2014-Sep-04 00:25S 34°56' E 019°21'22911.4
2014-Sep-03 04:20S 34°43' E 023°60'7613.0
2014-Sep-02 22:30S 34°40' E 025°32'  
Track history (hours):
 
Tides and Currents Weather Stations Pressure Air Temp Water Temp Dewpoint Dewpoint Depression Visibility Wind Speed Wind Dir Waves Ship Positions

John M Carras

Last reported at 2014-Sep-04 17:25 UTC. Time now 2014-Sep-19 23:59 UTC.
Position S 33°21' E 015°48'.
Warning: this ship's position is 15 days out of date.

Length 229 m; draft 14.2 m.

Type: Cargo ship. MMSI: 241150000.

Date/timePositionNaut miles runAvg speedWind from/ knotsBaromVisibWave heightAir tempDewpointWater temp
2014-Sep-04 17:25S 33°21' E 015°48'9611.7
2014-Sep-04 09:12S 34°12' E 017°25'2012.3
2014-Sep-04 07:32S 34°23' E 017°46'1212.0
2014-Sep-04 06:32S 34°30' E 017°59'1412.2
2014-Sep-04 05:22S 34°37' E 018°13'1012.1
2014-Sep-04 04:33S 34°41' E 018°24'1212.1
2014-Sep-04 03:34S 34°45' E 018°38'1212.0
2014-Sep-04 02:33S 34°49' E 018°52'1211.8
2014-Sep-04 01:31S 34°52' E 019°06'1311.8
2014-Sep-04 00:25S 34°56' E 019°21'22911.4
2014-Sep-03 04:20S 34°43' E 023°60'7613.0
2014-Sep-02 22:30S 34°40' E 025°32'  

Dump ship's entire track history